sensor_id;sensor_type;location;lat;lon;timestamp;temperature;humidity
13616;DHT22;6879;51.368;6.782;2023-03-01T00:01:51;-2.70;99.90
13616;DHT22;6879;51.368;6.782;2023-03-01T00:04:20;-2.60;99.90
13616;DHT22;6879;51.368;6.782;2023-03-01T00:06:49;-2.60;99.90
13616;DHT22;6879;51.368;6.782;2023-03-01T00:09:17;-2.60;99.90
13616;DHT22;6879;51.368;6.782;2023-03-01T00:11:46;-2.60;99.90
13616;DHT22;6879;51.368;6.782;2023-03-01T00:14:16;-2.50;99.90
13616;DHT22;6879;51.368;6.782;2023-03-01T00:16:45;-2.50;99.90
13616;DHT22;6879;51.368;6.782;2023-03-01T00:19:17;-2.40;99.90
13616;DHT22;6879;51.368;6.782;2023-03-01T00:21:47;-2.30;99.90
13616;DHT22;6879;51.368;6.782;2023-03-01T00:24:15;-2.20;99.90
13616;DHT22;6879;51.368;6.782;2023-03-01T00:26:44;-2.30;99.90
13616;DHT22;6879;51.368;6.782;2023-03-01T00:29:13;-2.20;99.90
13616;DHT22;6879;51.368;6.782;2023-03-01T00:31:45;-2.20;99.90
13616;DHT22;6879;51.368;6.782;2023-03-01T00:34:14;-2.30;99.90
13616;DHT22;6879;51.368;6.782;2023-03-01T00:36:43;-2.40;99.90
13616;DHT22;6879;51.368;6.782;2023-03-01T00:39:13;-2.50;99.90
13616;DHT22;6879;51.368;6.782;2023-03-01T00:41:42;-2.70;99.90
13616;DHT22;6879;51.368;6.782;2023-03-01T00:44:12;-2.70;99.90
13616;DHT22;6879;51.368;6.782;2023-03-01T00:46:42;-2.70;99.90
13616;DHT22;6879;51.368;6.782;2023-03-01T00:49:11;-2.40;99.90
13616;DHT22;6879;51.368;6.782;2023-03-01T00:51:40;-2.50;99.90
13616;DHT22;6879;51.368;6.782;2023-03-01T00:54:09;-2.50;99.90
13616;DHT22;6879;51.368;6.782;2023-03-01T00:56:37;-2.60;99.90
13616;DHT22;6879;51.368;6.782;2023-03-01T00:59:06;-2.60;99.90
13616;DHT22;6879;51.368;6.782;2023-03-01T01:01:34;-2.70;99.90
13616;DHT22;6879;51.368;6.782;2023-03-01T01:04:11;-2.90;99.90
13616;DHT22;6879;51.368;6.782;2023-03-01T01:06:42;-2.90;99.90
13616;DHT22;6879;51.368;6.782;2023-03-01T01:09:12;-2.80;99.90
13616;DHT22;6879;51.368;6.782;2023-03-01T01:11:45;-2.90;99.90
13616;DHT22;6879;51.368;6.782;2023-03-01T01:14:14;-2.70;99.90
13616;DHT22;6879;51.368;6.782;2023-03-01T01:16:43;-2.40;99.90
13616;DHT22;6879;51.368;6.782;2023-03-01T01:19:13;-2.40;99.90
13616;DHT22;6879;51.368;6.782;2023-03-01T01:21:42;-2.40;99.90
13616;DHT22;6879;51.368;6.782;2023-03-01T01:24:12;-2.40;99.90
13616;DHT22;6879;51.368;6.782;2023-03-01T01:26:41;-2.40;99.90
13616;DHT22;6879;51.368;6.782;2023-03-01T01:29:13;-2.40;99.90
13616;DHT22;6879;51.368;6.782;2023-03-01T01:31:42;-2.60;99.90
13616;DHT22;6879;51.368;6.782;2023-03-01T01:34:16;-2.60;99.90
13616;DHT22;6879;51.368;6.782;2023-03-01T01:36:48;-2.70;99.90
13616;DHT22;6879;51.368;6.782;2023-03-01T01:39:17;-2.90;99.90
13616;DHT22;6879;51.368;6.782;2023-03-01T01:41:46;-3.10;99.90
13616;DHT22;6879;51.368;6.782;2023-03-01T01:44:17;-3.20;99.90
13616;DHT22;6879;51.368;6.782;2023-03-01T01:46:49;-3.20;99.90
13616;DHT22;6879;51.368;6.782;2023-03-01T01:49:27;-3.10;99.90
13616;DHT22;6879;51.368;6.782;2023-03-01T01:52:02;-3.00;99.90
13616;DHT22;6879;51.368;6.782;2023-03-01T01:54:41;-2.80;99.90
13616;DHT22;6879;51.368;6.782;2023-03-01T01:57:14;-2.60;99.90
13616;DHT22;6879;51.368;6.782;2023-03-01T01:59:48;-2.40;99.90
13616;DHT22;6879;51.368;6.782;2023-03-01T02:02:18;-2.30;99.90
13616;DHT22;6879;51.368;6.782;2023-03-01T02:04:52;-2.30;99.90
13616;DHT22;6879;51.368;6.782;2023-03-01T02:07:24;-2.40;99.90
13616;DHT22;6879;51.368;6.782;2023-03-01T02:09:53;-2.50;99.90
13616;DHT22;6879;51.368;6.782;2023-03-01T02:12:23;-2.50;99.90
13616;DHT22;6879;51.368;6.782;2023-03-01T02:14:53;-2.60;99.90
13616;DHT22;6879;51.368;6.782;2023-03-01T02:17:22;-2.90;99.90
13616;DHT22;6879;51.368;6.782;2023-03-01T02:20:01;-3.00;99.90
13616;DHT22;6879;51.368;6.782;2023-03-01T02:22:36;-3.00;99.90
13616;DHT22;6879;51.368;6.782;2023-03-01T02:25:30;-3.20;99.90
13616;DHT22;6879;51.368;6.782;2023-03-01T02:28:06;-3.10;99.90
13616;DHT22;6879;51.368;6.782;2023-03-01T02:30:38;-2.90;99.90
13616;DHT22;6879;51.368;6.782;2023-03-01T02:33:28;-2.80;99.90
13616;DHT22;6879;51.368;6.782;2023-03-01T02:36:01;-3.10;99.90
13616;DHT22;6879;51.368;6.782;2023-03-01T02:38:32;-3.30;99.90
13616;DHT22;6879;51.368;6.782;2023-03-01T02:41:02;-3.30;99.90
13616;DHT22;6879;51.368;6.782;2023-03-01T02:43:33;-3.50;99.90
13616;DHT22;6879;51.368;6.782;2023-03-01T02:46:08;-3.30;99.90
13616;DHT22;6879;51.368;6.782;2023-03-01T02:48:43;-3.20;99.90
13616;DHT22;6879;51.368;6.782;2023-03-01T02:51:25;-3.00;99.90
13616;DHT22;6879;51.368;6.782;2023-03-01T02:54:07;-3.00;99.90
13616;DHT22;6879;51.368;6.782;2023-03-01T02:56:36;-2.70;99.90
13616;DHT22;6879;51.368;6.782;2023-03-01T02:59:05;-2.70;99.90
13616;DHT22;6879;51.368;6.782;2023-03-01T03:01:36;-2.80;99.90
13616;DHT22;6879;51.368;6.782;2023-03-01T03:04:09;-3.00;99.90
13616;DHT22;6879;51.368;6.782;2023-03-01T03:06:38;-2.70;99.90
13616;DHT22;6879;51.368;6.782;2023-03-01T03:09:09;-2.50;99.90
13616;DHT22;6879;51.368;6.782;2023-03-01T03:11:38;-2.80;99.90
13616;DHT22;6879;51.368;6.782;2023-03-01T03:14:09;-2.90;99.90
13616;DHT22;6879;51.368;6.782;2023-03-01T03:16:45;-2.70;99.90
13616;DHT22;6879;51.368;6.782;2023-03-01T03:19:14;-2.70;99.90
13616;DHT22;6879;51.368;6.782;2023-03-01T03:21:43;-2.60;99.90
13616;DHT22;6879;51.368;6.782;2023-03-01T03:24:12;-2.50;99.90
13616;DHT22;6879;51.368;6.782;2023-03-01T03:26:41;-2.40;99.90
13616;DHT22;6879;51.368;6.782;2023-03-01T03:29:09;-2.40;99.90
13616;DHT22;6879;51.368;6.782;2023-03-01T03:31:38;-2.20;99.90
13616;DHT22;6879;51.368;6.782;2023-03-01T03:34:08;-2.20;99.90
13616;DHT22;6879;51.368;6.782;2023-03-01T03:36:44;-2.30;99.90
13616;DHT22;6879;51.368;6.782;2023-03-01T03:39:13;-2.30;99.90
13616;DHT22;6879;51.368;6.782;2023-03-01T03:41:41;-2.20;99.90
13616;DHT22;6879;51.368;6.782;2023-03-01T03:44:10;-2.10;99.90
13616;DHT22;6879;51.368;6.782;2023-03-01T03:46:39;-2.00;99.90
13616;DHT22;6879;51.368;6.782;2023-03-01T03:49:09;-2.00;99.90
13616;DHT22;6879;51.368;6.782;2023-03-01T03:51:37;-2.00;99.90
13616;DHT22;6879;51.368;6.782;2023-03-01T03:54:06;-2.10;99.90
13616;DHT22;6879;51.368;6.782;2023-03-01T03:56:35;-2.10;99.90
13616;DHT22;6879;51.368;6.782;2023-03-01T03:59:06;-2.00;99.90
13616;DHT22;6879;51.368;6.782;2023-03-01T04:01:34;-2.10;99.90
13616;DHT22;6879;51.368;6.782;2023-03-01T04:04:03;-2.20;99.90
13616;DHT22;6879;51.368;6.782;2023-03-01T04:06:36;-2.10;99.90
13616;DHT22;6879;51.368;6.782;2023-03-01T04:09:04;-2.20;99.90
13616;DHT22;6879;51.368;6.782;2023-03-01T04:11:33;-2.30;99.90
13616;DHT22;6879;51.368;6.782;2023-03-01T04:14:02;-2.10;99.90
13616;DHT22;6879;51.368;6.782;2023-03-01T04:16:31;-2.20;99.90
13616;DHT22;6879;51.368;6.782;2023-03-01T04:19:00;-2.40;99.90
13616;DHT22;6879;51.368;6.782;2023-03-01T04:21:29;-2.40;99.90
13616;DHT22;6879;51.368;6.782;2023-03-01T04:23:59;-2.60;99.90
13616;DHT22;6879;51.368;6.782;2023-03-01T04:26:28;-2.50;99.90
13616;DHT22;6879;51.368;6.782;2023-03-01T04:28:58;-2.40;99.90
13616;DHT22;6879;51.368;6.782;2023-03-01T04:31:26;-2.50;99.90
13616;DHT22;6879;51.368;6.782;2023-03-01T04:33:55;-2.40;99.90
13616;DHT22;6879;51.368;6.782;2023-03-01T04:36:26;-2.40;99.90
13616;DHT22;6879;51.368;6.782;2023-03-01T04:38:56;-2.40;99.90
13616;DHT22;6879;51.368;6.782;2023-03-01T04:41:26;-2.30;99.90
13616;DHT22;6879;51.368;6.782;2023-03-01T04:43:54;-2.10;99.90
13616;DHT22;6879;51.368;6.782;2023-03-01T04:46:23;-2.10;99.90
13616;DHT22;6879;51.368;6.782;2023-03-01T04:48:52;-2.10;99.90
13616;DHT22;6879;51.368;6.782;2023-03-01T04:51:21;-2.20;99.90
13616;DHT22;6879;51.368;6.782;2023-03-01T04:53:49;-2.20;99.90
13616;DHT22;6879;51.368;6.782;2023-03-01T04:56:18;-2.10;99.90
13616;DHT22;6879;51.368;6.782;2023-03-01T04:58:48;-2.20;99.90
13616;DHT22;6879;51.368;6.782;2023-03-01T05:01:20;-2.20;99.90
13616;DHT22;6879;51.368;6.782;2023-03-01T05:03:50;-2.40;99.90
13616;DHT22;6879;51.368;6.782;2023-03-01T05:06:20;-2.80;99.90
13616;DHT22;6879;51.368;6.782;2023-03-01T05:08:49;-3.00;99.90
13616;DHT22;6879;51.368;6.782;2023-03-01T05:11:18;-2.90;99.90
13616;DHT22;6879;51.368;6.782;2023-03-01T05:13:48;-2.60;99.90
13616;DHT22;6879;51.368;6.782;2023-03-01T05:16:22;-2.60;99.90
13616;DHT22;6879;51.368;6.782;2023-03-01T05:18:51;-2.50;99.90
13616;DHT22;6879;51.368;6.782;2023-03-01T05:21:19;-2.60;99.90
13616;DHT22;6879;51.368;6.782;2023-03-01T05:23:48;-2.50;99.90
13616;DHT22;6879;51.368;6.782;2023-03-01T05:26:18;-2.50;99.90
13616;DHT22;6879;51.368;6.782;2023-03-01T05:28:56;-2.60;99.90
13616;DHT22;6879;51.368;6.782;2023-03-01T05:31:26;-2.50;99.90
13616;DHT22;6879;51.368;6.782;2023-03-01T05:33:57;-2.40;99.90
13616;DHT22;6879;51.368;6.782;2023-03-01T05:36:26;-2.40;99.90
13616;DHT22;6879;51.368;6.782;2023-03-01T05:38:55;-2.50;99.90
13616;DHT22;6879;51.368;6.782;2023-03-01T05:41:24;-2.40;99.90
13616;DHT22;6879;51.368;6.782;2023-03-01T05:43:52;-2.30;99.90
13616;DHT22;6879;51.368;6.782;2023-03-01T05:46:23;-2.30;99.90
13616;DHT22;6879;51.368;6.782;2023-03-01T05:48:51;-2.40;99.90
13616;DHT22;6879;51.368;6.782;2023-03-01T05:51:20;-2.40;99.90
13616;DHT22;6879;51.368;6.782;2023-03-01T05:53:49;-2.40;99.90
13616;DHT22;6879;51.368;6.782;2023-03-01T05:56:17;-2.50;99.90
13616;DHT22;6879;51.368;6.782;2023-03-01T05:58:47;-2.50;99.90
13616;DHT22;6879;51.368;6.782;2023-03-01T06:01:16;-2.60;99.90
13616;DHT22;6879;51.368;6.782;2023-03-01T06:03:47;-2.80;99.90
13616;DHT22;6879;51.368;6.782;2023-03-01T06:06:18;-3.00;99.90
13616;DHT22;6879;51.368;6.782;2023-03-01T06:08:46;-3.00;99.90
13616;DHT22;6879;51.368;6.782;2023-03-01T06:11:16;-3.00;99.90
13616;DHT22;6879;51.368;6.782;2023-03-01T06:13:45;-2.70;99.90
13616;DHT22;6879;51.368;6.782;2023-03-01T06:16:14;-2.50;99.90
13616;DHT22;6879;51.368;6.782;2023-03-01T06:18:43;-2.50;99.90
13616;DHT22;6879;51.368;6.782;2023-03-01T06:21:14;-2.40;99.90
13616;DHT22;6879;51.368;6.782;2023-03-01T06:23:42;-2.50;99.90
13616;DHT22;6879;51.368;6.782;2023-03-01T06:26:18;-2.50;99.90
13616;DHT22;6879;51.368;6.782;2023-03-01T06:29:18;-2.40;99.90
13616;DHT22;6879;51.368;6.782;2023-03-01T06:32:05;-2.40;99.90
13616;DHT22;6879;51.368;6.782;2023-03-01T06:34:38;-2.40;99.90
13616;DHT22;6879;51.368;6.782;2023-03-01T06:37:09;-2.40;99.90
13616;DHT22;6879;51.368;6.782;2023-03-01T06:40:22;-2.40;99.90
13616;DHT22;6879;51.368;6.782;2023-03-01T06:42:57;-2.40;99.90
13616;DHT22;6879;51.368;6.782;2023-03-01T06:45:36;-2.40;99.90
13616;DHT22;6879;51.368;6.782;2023-03-01T06:48:26;-2.40;99.90
13616;DHT22;6879;51.368;6.782;2023-03-01T06:52:32;-2.30;99.90
13616;DHT22;6879;51.368;6.782;2023-03-01T06:55:20;-2.30;99.90
13616;DHT22;6879;51.368;6.782;2023-03-01T06:57:54;-2.40;99.90
13616;DHT22;6879;51.368;6.782;2023-03-01T07:00:26;-2.40;99.90
13616;DHT22;6879;51.368;6.782;2023-03-01T07:03:00;-2.40;99.90
13616;DHT22;6879;51.368;6.782;2023-03-01T07:05:36;-2.30;99.90
13616;DHT22;6879;51.368;6.782;2023-03-01T07:08:57;-2.30;99.90
13616;DHT22;6879;51.368;6.782;2023-03-01T07:12:16;-2.30;99.90
13616;DHT22;6879;51.368;6.782;2023-03-01T07:14:46;-2.30;99.90
13616;DHT22;6879;51.368;6.782;2023-03-01T07:17:15;-2.40;99.90
13616;DHT22;6879;51.368;6.782;2023-03-01T07:19:44;-2.50;99.90
13616;DHT22;6879;51.368;6.782;2023-03-01T07:22:13;-2.60;99.90
13616;DHT22;6879;51.368;6.782;2023-03-01T07:29:10;-2.40;99.90
13616;DHT22;6879;51.368;6.782;2023-03-01T07:32:02;-2.20;99.90
13616;DHT22;6879;51.368;6.782;2023-03-01T07:34:34;-2.20;99.90
13616;DHT22;6879;51.368;6.782;2023-03-01T07:37:03;-2.00;99.90
13616;DHT22;6879;51.368;6.782;2023-03-01T07:44:20;-1.70;99.90
13616;DHT22;6879;51.368;6.782;2023-03-01T07:51:03;-1.50;99.90
13616;DHT22;6879;51.368;6.782;2023-03-01T07:53:48;-1.20;99.90
13616;DHT22;6879;51.368;6.782;2023-03-01T07:56:38;-1.20;99.90
13616;DHT22;6879;51.368;6.782;2023-03-01T07:59:13;-0.90;99.90
13616;DHT22;6879;51.368;6.782;2023-03-01T08:02:53;-0.70;99.90
13616;DHT22;6879;51.368;6.782;2023-03-01T08:05:22;-0.80;99.90
13616;DHT22;6879;51.368;6.782;2023-03-01T08:11:57;-0.70;99.90
13616;DHT22;6879;51.368;6.782;2023-03-01T08:14:27;-0.30;99.90
13616;DHT22;6879;51.368;6.782;2023-03-01T08:16:56;-0.20;99.90
13616;DHT22;6879;51.368;6.782;2023-03-01T08:19:52;0.00;99.90
13616;DHT22;6879;51.368;6.782;2023-03-01T08:22:34;0.10;99.90
13616;DHT22;6879;51.368;6.782;2023-03-01T08:25:34;0.30;99.10
13616;DHT22;6879;51.368;6.782;2023-03-01T08:28:06;0.50;98.40
13616;DHT22;6879;51.368;6.782;2023-03-01T08:30:46;0.50;98.40
13616;DHT22;6879;51.368;6.782;2023-03-01T08:33:15;0.60;98.50
13616;DHT22;6879;51.368;6.782;2023-03-01T08:35:46;0.80;97.80
13616;DHT22;6879;51.368;6.782;2023-03-01T08:38:18;0.90;97.10
13616;DHT22;6879;51.368;6.782;2023-03-01T08:41:06;0.90;96.90
13616;DHT22;6879;51.368;6.782;2023-03-01T08:44:07;1.00;97.10
13616;DHT22;6879;51.368;6.782;2023-03-01T08:50:42;1.30;96.60
13616;DHT22;6879;51.368;6.782;2023-03-01T08:53:15;1.40;95.10
13616;DHT22;6879;51.368;6.782;2023-03-01T08:56:13;1.50;94.80
13616;DHT22;6879;51.368;6.782;2023-03-01T08:58:48;1.50;95.00
13616;DHT22;6879;51.368;6.782;2023-03-01T09:05:44;1.80;94.10
13616;DHT22;6879;51.368;6.782;2023-03-01T09:09:07;2.00;93.70
13616;DHT22;6879;51.368;6.782;2023-03-01T09:11:47;2.10;92.60
13616;DHT22;6879;51.368;6.782;2023-03-01T09:15:07;2.20;92.20
13616;DHT22;6879;51.368;6.782;2023-03-01T09:17:54;2.30;91.80
13616;DHT22;6879;51.368;6.782;2023-03-01T09:20:40;2.40;92.00
13616;DHT22;6879;51.368;6.782;2023-03-01T09:23:30;2.50;92.10
13616;DHT22;6879;51.368;6.782;2023-03-01T09:26:51;2.70;91.20
13616;DHT22;6879;51.368;6.782;2023-03-01T09:30:39;2.70;90.50
13616;DHT22;6879;51.368;6.782;2023-03-01T09:33:32;2.70;89.80
13616;DHT22;6879;51.368;6.782;2023-03-01T09:36:26;2.90;90.20
13616;DHT22;6879;51.368;6.782;2023-03-01T09:39:11;3.00;89.70
13616;DHT22;6879;51.368;6.782;2023-03-01T09:41:49;3.00;89.60
13616;DHT22;6879;51.368;6.782;2023-03-01T09:44:35;3.00;88.80
13616;DHT22;6879;51.368;6.782;2023-03-01T09:47:23;3.10;89.40
13616;DHT22;6879;51.368;6.782;2023-03-01T09:50:02;3.30;89.30
13616;DHT22;6879;51.368;6.782;2023-03-01T09:52:40;3.50;88.40
13616;DHT22;6879;51.368;6.782;2023-03-01T10:19:43;4.10;86.10
13616;DHT22;6879;51.368;6.782;2023-03-01T10:23:22;4.20;85.10
13616;DHT22;6879;51.368;6.782;2023-03-01T10:27:37;4.30;84.80
13616;DHT22;6879;51.368;6.782;2023-03-01T10:45:41;4.70;83.00
13616;DHT22;6879;51.368;6.782;2023-03-01T10:48:14;5.10;82.00
13616;DHT22;6879;51.368;6.782;2023-03-01T10:50:51;5.20;81.20
13616;DHT22;6879;51.368;6.782;2023-03-01T10:53:40;5.70;81.00
13616;DHT22;6879;51.368;6.782;2023-03-01T10:56:15;6.30;79.60
13616;DHT22;6879;51.368;6.782;2023-03-01T10:58:58;7.00;78.10
13616;DHT22;6879;51.368;6.782;2023-03-01T11:01:32;7.60;76.10
13616;DHT22;6879;51.368;6.782;2023-03-01T11:04:10;8.20;75.00
13616;DHT22;6879;51.368;6.782;2023-03-01T11:06:43;9.00;73.70
13616;DHT22;6879;51.368;6.782;2023-03-01T11:09:32;9.60;72.00
13616;DHT22;6879;51.368;6.782;2023-03-01T11:12:14;9.40;71.30
13616;DHT22;6879;51.368;6.782;2023-03-01T11:14:48;10.30;69.80
13616;DHT22;6879;51.368;6.782;2023-03-01T11:17:25;10.80;68.50
13616;DHT22;6879;51.368;6.782;2023-03-01T11:20:02;10.50;68.10
13616;DHT22;6879;51.368;6.782;2023-03-01T11:22:35;10.80;68.30
13616;DHT22;6879;51.368;6.782;2023-03-01T11:25:11;11.20;67.40
13616;DHT22;6879;51.368;6.782;2023-03-01T11:27:43;10.60;66.20
13616;DHT22;6879;51.368;6.782;2023-03-01T11:30:19;11.20;66.80
13616;DHT22;6879;51.368;6.782;2023-03-01T11:33:03;10.50;67.00
13616;DHT22;6879;51.368;6.782;2023-03-01T11:35:40;11.20;66.40
13616;DHT22;6879;51.368;6.782;2023-03-01T11:38:21;12.00;65.20
13616;DHT22;6879;51.368;6.782;2023-03-01T11:40:55;12.40;63.30
13616;DHT22;6879;51.368;6.782;2023-03-01T11:43:35;11.40;63.90
13616;DHT22;6879;51.368;6.782;2023-03-01T11:46:41;11.80;64.50
13616;DHT22;6879;51.368;6.782;2023-03-01T11:52:21;11.10;66.10
13616;DHT22;6879;51.368;6.782;2023-03-01T11:55:07;12.30;63.80
13616;DHT22;6879;51.368;6.782;2023-03-01T11:57:51;12.60;62.70
13616;DHT22;6879;51.368;6.782;2023-03-01T12:00:49;12.40;61.50
13616;DHT22;6879;51.368;6.782;2023-03-01T12:03:28;12.10;61.90
13616;DHT22;6879;51.368;6.782;2023-03-01T12:06:31;12.80;61.70
13616;DHT22;6879;51.368;6.782;2023-03-01T12:09:21;13.40;61.10
13616;DHT22;6879;51.368;6.782;2023-03-01T12:12:16;12.50;58.40
13616;DHT22;6879;51.368;6.782;2023-03-01T12:15:25;11.90;60.60
13616;DHT22;6879;51.368;6.782;2023-03-01T12:18:14;11.70;62.20
13616;DHT22;6879;51.368;6.782;2023-03-01T12:20:52;12.80;61.20
13616;DHT22;6879;51.368;6.782;2023-03-01T12:23:49;13.40;60.50
13616;DHT22;6879;51.368;6.782;2023-03-01T12:26:28;13.30;60.00
13616;DHT22;6879;51.368;6.782;2023-03-01T12:29:12;13.30;60.60
13616;DHT22;6879;51.368;6.782;2023-03-01T12:32:06;12.00;61.00
13616;DHT22;6879;51.368;6.782;2023-03-01T12:35:01;12.50;62.10
13616;DHT22;6879;51.368;6.782;2023-03-01T12:37:39;13.60;61.00
13616;DHT22;6879;51.368;6.782;2023-03-01T12:40:27;13.30;60.00
13616;DHT22;6879;51.368;6.782;2023-03-01T12:43:23;12.00;61.70
13616;DHT22;6879;51.368;6.782;2023-03-01T12:46:25;11.60;62.60
13616;DHT22;6879;51.368;6.782;2023-03-01T12:49:05;11.50;63.10
13616;DHT22;6879;51.368;6.782;2023-03-01T12:51:42;12.20;62.40
13616;DHT22;6879;51.368;6.782;2023-03-01T12:54:16;12.10;62.30
13616;DHT22;6879;51.368;6.782;2023-03-01T12:56:50;13.00;61.30
13616;DHT22;6879;51.368;6.782;2023-03-01T12:59:26;13.00;60.60
13616;DHT22;6879;51.368;6.782;2023-03-01T13:02:05;12.70;60.80
13616;DHT22;6879;51.368;6.782;2023-03-01T13:04:57;13.60;60.30
13616;DHT22;6879;51.368;6.782;2023-03-01T13:07:35;13.40;58.80
13616;DHT22;6879;51.368;6.782;2023-03-01T13:10:19;13.90;59.30
13616;DHT22;6879;51.368;6.782;2023-03-01T13:13:02;14.40;58.00
13616;DHT22;6879;51.368;6.782;2023-03-01T13:15:34;14.40;57.00
13616;DHT22;6879;51.368;6.782;2023-03-01T13:18:28;14.70;58.30
13616;DHT22;6879;51.368;6.782;2023-03-01T13:21:01;15.80;56.80
13616;DHT22;6879;51.368;6.782;2023-03-01T13:23:38;14.70;56.00
13616;DHT22;6879;51.368;6.782;2023-03-01T13:26:12;14.50;57.40
13616;DHT22;6879;51.368;6.782;2023-03-01T13:28:52;15.00;56.60
13616;DHT22;6879;51.368;6.782;2023-03-01T13:34:51;14.90;56.80
13616;DHT22;6879;51.368;6.782;2023-03-01T13:37:28;14.50;57.40
13616;DHT22;6879;51.368;6.782;2023-03-01T13:40:05;14.70;56.90
13616;DHT22;6879;51.368;6.782;2023-03-01T13:42:55;14.70;57.60
13616;DHT22;6879;51.368;6.782;2023-03-01T13:45:39;14.40;57.20
13616;DHT22;6879;51.368;6.782;2023-03-01T13:48:15;14.30;57.60
13616;DHT22;6879;51.368;6.782;2023-03-01T13:50:50;14.40;57.70
13616;DHT22;6879;51.368;6.782;2023-03-01T13:53:24;15.10;56.60
13616;DHT22;6879;51.368;6.782;2023-03-01T13:55:57;14.80;56.70
13616;DHT22;6879;51.368;6.782;2023-03-01T13:58:30;14.40;56.80
13616;DHT22;6879;51.368;6.782;2023-03-01T14:01:04;14.20;57.20
13616;DHT22;6879;51.368;6.782;2023-03-01T14:03:42;13.90;57.50
13616;DHT22;6879;51.368;6.782;2023-03-01T14:06:15;14.60;57.40
13616;DHT22;6879;51.368;6.782;2023-03-01T14:08:49;14.00;57.50
13616;DHT22;6879;51.368;6.782;2023-03-01T14:12:08;14.40;57.80
13616;DHT22;6879;51.368;6.782;2023-03-01T14:14:48;14.80;57.80
13616;DHT22;6879;51.368;6.782;2023-03-01T14:17:43;16.00;55.90
13616;DHT22;6879;51.368;6.782;2023-03-01T14:20:20;16.10;55.30
13616;DHT22;6879;51.368;6.782;2023-03-01T14:22:53;15.90;55.00
13616;DHT22;6879;51.368;6.782;2023-03-01T14:25:29;16.30;55.00
13616;DHT22;6879;51.368;6.782;2023-03-01T14:28:04;15.30;54.60
13616;DHT22;6879;51.368;6.782;2023-03-01T14:30:37;15.30;55.90
13616;DHT22;6879;51.368;6.782;2023-03-01T14:33:21;15.60;55.80
13616;DHT22;6879;51.368;6.782;2023-03-01T14:35:56;15.90;55.40
13616;DHT22;6879;51.368;6.782;2023-03-01T14:38:32;15.50;55.30
13616;DHT22;6879;51.368;6.782;2023-03-01T14:41:03;14.60;56.40
13616;DHT22;6879;51.368;6.782;2023-03-01T14:43:38;15.30;56.60
13616;DHT22;6879;51.368;6.782;2023-03-01T14:46:18;15.70;55.70
13616;DHT22;6879;51.368;6.782;2023-03-01T14:48:51;15.70;56.00
13616;DHT22;6879;51.368;6.782;2023-03-01T14:51:21;14.90;56.30
13616;DHT22;6879;51.368;6.782;2023-03-01T14:53:53;15.50;56.80
13616;DHT22;6879;51.368;6.782;2023-03-01T14:56:24;15.70;55.80
13616;DHT22;6879;51.368;6.782;2023-03-01T14:58:58;15.10;56.70
13616;DHT22;6879;51.368;6.782;2023-03-01T18:47:36;3.80;83.10
13616;DHT22;6879;51.368;6.782;2023-03-01T19:44:41;3.50;84.00
13616;DHT22;6879;51.368;6.782;2023-03-01T20:35:04;3.00;86.20
13616;DHT22;6879;51.368;6.782;2023-03-01T20:37:34;3.00;86.30
13616;DHT22;6879;51.368;6.782;2023-03-01T20:40:04;3.00;86.40
13616;DHT22;6879;51.368;6.782;2023-03-01T20:42:36;3.00;86.30
13616;DHT22;6879;51.368;6.782;2023-03-01T20:45:06;2.90;86.50
13616;DHT22;6879;51.368;6.782;2023-03-01T20:47:36;2.90;86.60
13616;DHT22;6879;51.368;6.782;2023-03-01T20:50:08;3.00;86.60
13616;DHT22;6879;51.368;6.782;2023-03-01T20:52:38;2.90;86.70
13616;DHT22;6879;51.368;6.782;2023-03-01T20:55:14;2.80;86.80
13616;DHT22;6879;51.368;6.782;2023-03-01T20:57:43;2.70;87.20
13616;DHT22;6879;51.368;6.782;2023-03-01T21:00:13;2.80;87.30
13616;DHT22;6879;51.368;6.782;2023-03-01T21:02:43;2.70;87.60
13616;DHT22;6879;51.368;6.782;2023-03-01T21:05:14;2.70;87.80
13616;DHT22;6879;51.368;6.782;2023-03-01T21:07:43;2.70;87.70
13616;DHT22;6879;51.368;6.782;2023-03-01T21:10:13;2.80;87.50
13616;DHT22;6879;51.368;6.782;2023-03-01T21:12:42;2.70;87.70
13616;DHT22;6879;51.368;6.782;2023-03-01T21:15:12;2.80;87.70
13616;DHT22;6879;51.368;6.782;2023-03-01T21:17:55;2.70;88.00
13616;DHT22;6879;51.368;6.782;2023-03-01T21:20:25;2.70;89.10
13616;DHT22;6879;51.368;6.782;2023-03-01T21:22:54;2.70;88.20
13616;DHT22;6879;51.368;6.782;2023-03-01T21:25:24;2.60;88.10
13616;DHT22;6879;51.368;6.782;2023-03-01T21:28:01;2.60;88.30
13616;DHT22;6879;51.368;6.782;2023-03-01T21:30:33;2.40;88.30
13616;DHT22;6879;51.368;6.782;2023-03-01T21:33:02;2.50;88.70
13616;DHT22;6879;51.368;6.782;2023-03-01T21:35:32;2.60;88.30
13616;DHT22;6879;51.368;6.782;2023-03-01T21:38:01;2.40;88.60
13616;DHT22;6879;51.368;6.782;2023-03-01T21:40:30;2.40;89.10
13616;DHT22;6879;51.368;6.782;2023-03-01T21:43:00;2.40;88.90
13616;DHT22;6879;51.368;6.782;2023-03-01T21:45:29;2.30;89.10
13616;DHT22;6879;51.368;6.782;2023-03-01T21:47:58;2.10;89.50
13616;DHT22;6879;51.368;6.782;2023-03-01T21:50:29;1.90;89.90
13616;DHT22;6879;51.368;6.782;2023-03-01T21:52:59;1.90;90.40
13616;DHT22;6879;51.368;6.782;2023-03-01T21:55:31;1.90;90.40
13616;DHT22;6879;51.368;6.782;2023-03-01T21:58:00;2.00;90.50
13616;DHT22;6879;51.368;6.782;2023-03-01T22:00:29;2.10;90.20
13616;DHT22;6879;51.368;6.782;2023-03-01T22:02:58;2.10;90.40
13616;DHT22;6879;51.368;6.782;2023-03-01T22:05:27;2.20;90.30
13616;DHT22;6879;51.368;6.782;2023-03-01T22:07:56;2.20;90.20
13616;DHT22;6879;51.368;6.782;2023-03-01T22:10:27;2.20;90.20
13616;DHT22;6879;51.368;6.782;2023-03-01T22:12:56;2.10;90.20
13616;DHT22;6879;51.368;6.782;2023-03-01T22:15:26;2.20;90.20
13616;DHT22;6879;51.368;6.782;2023-03-01T22:17:55;2.20;90.00
13616;DHT22;6879;51.368;6.782;2023-03-01T22:20:24;2.10;90.10
13616;DHT22;6879;51.368;6.782;2023-03-01T22:22:53;2.10;90.40
13616;DHT22;6879;51.368;6.782;2023-03-01T22:25:22;2.20;90.10
13616;DHT22;6879;51.368;6.782;2023-03-01T22:27:52;2.40;89.70
13616;DHT22;6879;51.368;6.782;2023-03-01T22:30:21;2.40;89.60
13616;DHT22;6879;51.368;6.782;2023-03-01T22:32:50;2.50;89.50
13616;DHT22;6879;51.368;6.782;2023-03-01T22:35:19;2.40;89.50
13616;DHT22;6879;51.368;6.782;2023-03-01T22:37:48;2.40;89.50
13616;DHT22;6879;51.368;6.782;2023-03-01T22:40:17;2.40;89.50
13616;DHT22;6879;51.368;6.782;2023-03-01T22:42:45;2.30;89.60
13616;DHT22;6879;51.368;6.782;2023-03-01T22:45:16;2.20;89.80
13616;DHT22;6879;51.368;6.782;2023-03-01T22:47:45;2.10;90.20
13616;DHT22;6879;51.368;6.782;2023-03-01T22:50:14;2.20;90.20
13616;DHT22;6879;51.368;6.782;2023-03-01T22:52:43;2.10;90.40
13616;DHT22;6879;51.368;6.782;2023-03-01T22:55:12;2.10;90.30
13616;DHT22;6879;51.368;6.782;2023-03-01T22:57:41;2.10;90.40
13616;DHT22;6879;51.368;6.782;2023-03-01T23:00:10;2.00;90.40
13616;DHT22;6879;51.368;6.782;2023-03-01T23:02:41;2.10;90.70
13616;DHT22;6879;51.368;6.782;2023-03-01T23:05:10;2.10;90.60
13616;DHT22;6879;51.368;6.782;2023-03-01T23:07:39;2.00;90.50
13616;DHT22;6879;51.368;6.782;2023-03-01T23:10:09;2.10;90.40
13616;DHT22;6879;51.368;6.782;2023-03-01T23:12:39;1.90;90.50
13616;DHT22;6879;51.368;6.782;2023-03-01T23:15:09;1.70;90.90
13616;DHT22;6879;51.368;6.782;2023-03-01T23:17:38;1.90;91.00
13616;DHT22;6879;51.368;6.782;2023-03-01T23:20:09;1.70;91.00
13616;DHT22;6879;51.368;6.782;2023-03-01T23:22:40;1.70;91.50
13616;DHT22;6879;51.368;6.782;2023-03-01T23:25:10;1.80;91.40
13616;DHT22;6879;51.368;6.782;2023-03-01T23:27:39;1.70;91.20